sensor_id;sensor_type;location;lat;lon;timestamp;temperature;humidity
77865;DHT22;67061;48.524;9.040;2023-05-18T00:01:10;3.60;99.90
77865;DHT22;67061;48.524;9.040;2023-05-18T00:03:39;3.50;99.90
77865;DHT22;67061;48.524;9.040;2023-05-18T00:06:06;3.50;99.90
77865;DHT22;67061;48.524;9.040;2023-05-18T00:08:34;3.50;99.90
77865;DHT22;67061;48.524;9.040;2023-05-18T00:11:02;3.60;99.90
77865;DHT22;67061;48.524;9.040;2023-05-18T00:13:29;3.60;99.90
77865;DHT22;67061;48.524;9.040;2023-05-18T00:15:57;3.60;99.90
77865;DHT22;67061;48.524;9.040;2023-05-18T00:18:25;3.60;99.90
77865;DHT22;67061;48.524;9.040;2023-05-18T00:20:52;3.60;99.90
77865;DHT22;67061;48.524;9.040;2023-05-18T00:23:25;3.60;99.90
77865;DHT22;67061;48.524;9.040;2023-05-18T00:25:55;3.60;99.90
77865;DHT22;67061;48.524;9.040;2023-05-18T00:28:22;3.50;99.90
77865;DHT22;67061;48.524;9.040;2023-05-18T00:30:49;3.50;99.90
77865;DHT22;67061;48.524;9.040;2023-05-18T00:33:16;3.50;99.90
77865;DHT22;67061;48.524;9.040;2023-05-18T00:35:44;3.50;99.90
77865;DHT22;67061;48.524;9.040;2023-05-18T00:38:11;3.50;99.90
77865;DHT22;67061;48.524;9.040;2023-05-18T00:40:40;3.50;99.90
77865;DHT22;67061;48.524;9.040;2023-05-18T00:43:07;3.50;99.90
77865;DHT22;67061;48.524;9.040;2023-05-18T00:45:33;3.40;99.90
77865;DHT22;67061;48.524;9.040;2023-05-18T00:48:00;3.30;99.90
77865;DHT22;67061;48.524;9.040;2023-05-18T00:50:27;3.30;99.90
77865;DHT22;67061;48.524;9.040;2023-05-18T00:52:56;3.30;99.90
77865;DHT22;67061;48.524;9.040;2023-05-18T00:55:23;3.30;99.90
77865;DHT22;67061;48.524;9.040;2023-05-18T00:57:51;3.30;99.90
77865;DHT22;67061;48.524;9.040;2023-05-18T01:00:21;3.20;99.90
77865;DHT22;67061;48.524;9.040;2023-05-18T01:02:48;3.20;99.90
77865;DHT22;67061;48.524;9.040;2023-05-18T01:05:15;3.10;99.90
77865;DHT22;67061;48.524;9.040;2023-05-18T01:07:44;3.10;99.90
77865;DHT22;67061;48.524;9.040;2023-05-18T01:10:15;3.00;99.90
77865;DHT22;67061;48.524;9.040;2023-05-18T01:12:48;3.00;99.90
77865;DHT22;67061;48.524;9.040;2023-05-18T01:15:17;2.90;99.90
77865;DHT22;67061;48.524;9.040;2023-05-18T01:17:57;2.90;99.90
77865;DHT22;67061;48.524;9.040;2023-05-18T01:20:31;2.90;99.90
77865;DHT22;67061;48.524;9.040;2023-05-18T01:23:35;2.90;99.90
77865;DHT22;67061;48.524;9.040;2023-05-18T01:26:15;2.80;99.90
77865;DHT22;67061;48.524;9.040;2023-05-18T01:28:50;2.80;99.90
77865;DHT22;67061;48.524;9.040;2023-05-18T01:31:17;2.90;99.90
77865;DHT22;67061;48.524;9.040;2023-05-18T01:33:44;2.80;99.90
77865;DHT22;67061;48.524;9.040;2023-05-18T01:36:11;2.70;99.90
77865;DHT22;67061;48.524;9.040;2023-05-18T01:38:39;2.80;99.90
77865;DHT22;67061;48.524;9.040;2023-05-18T01:41:13;2.80;99.90
77865;DHT22;67061;48.524;9.040;2023-05-18T01:43:48;2.70;99.90
77865;DHT22;67061;48.524;9.040;2023-05-18T01:46:24;2.70;99.90
77865;DHT22;67061;48.524;9.040;2023-05-18T01:48:55;2.70;99.90
77865;DHT22;67061;48.524;9.040;2023-05-18T01:51:28;2.60;99.90
77865;DHT22;67061;48.524;9.040;2023-05-18T01:54:00;2.60;99.90
77865;DHT22;67061;48.524;9.040;2023-05-18T01:56:29;2.60;99.90
77865;DHT22;67061;48.524;9.040;2023-05-18T01:58:59;2.60;99.90
77865;DHT22;67061;48.524;9.040;2023-05-18T02:01:26;2.60;99.90
77865;DHT22;67061;48.524;9.040;2023-05-18T02:03:53;2.50;99.90
77865;DHT22;67061;48.524;9.040;2023-05-18T02:06:20;2.50;99.90
77865;DHT22;67061;48.524;9.040;2023-05-18T02:08:47;2.50;99.90
77865;DHT22;67061;48.524;9.040;2023-05-18T02:11:14;2.50;99.90
77865;DHT22;67061;48.524;9.040;2023-05-18T02:13:41;2.60;99.90
77865;DHT22;67061;48.524;9.040;2023-05-18T02:16:09;2.70;99.90
77865;DHT22;67061;48.524;9.040;2023-05-18T02:18:36;2.70;99.90
77865;DHT22;67061;48.524;9.040;2023-05-18T02:21:03;2.70;99.90
77865;DHT22;67061;48.524;9.040;2023-05-18T02:23:30;2.60;99.90
77865;DHT22;67061;48.524;9.040;2023-05-18T02:25:58;2.50;99.90
77865;DHT22;67061;48.524;9.040;2023-05-18T02:28:25;2.50;99.90
77865;DHT22;67061;48.524;9.040;2023-05-18T02:30:52;2.50;99.90
77865;DHT22;67061;48.524;9.040;2023-05-18T02:33:20;2.50;99.90
77865;DHT22;67061;48.524;9.040;2023-05-18T02:35:51;2.50;99.90
77865;DHT22;67061;48.524;9.040;2023-05-18T02:38:18;2.50;99.90
77865;DHT22;67061;48.524;9.040;2023-05-18T02:40:46;2.40;99.90
77865;DHT22;67061;48.524;9.040;2023-05-18T02:43:13;2.50;99.90
77865;DHT22;67061;48.524;9.040;2023-05-18T02:45:40;2.50;99.90
77865;DHT22;67061;48.524;9.040;2023-05-18T02:48:07;2.50;99.90
77865;DHT22;67061;48.524;9.040;2023-05-18T02:50:35;2.50;99.90
77865;DHT22;67061;48.524;9.040;2023-05-18T02:53:02;2.50;99.90
77865;DHT22;67061;48.524;9.040;2023-05-18T02:55:29;2.30;99.90
77865;DHT22;67061;48.524;9.040;2023-05-18T02:57:56;2.30;99.90
77865;DHT22;67061;48.524;9.040;2023-05-18T03:00:23;2.30;99.90
77865;DHT22;67061;48.524;9.040;2023-05-18T03:02:50;2.20;99.90
77865;DHT22;67061;48.524;9.040;2023-05-18T03:05:18;2.20;99.90
77865;DHT22;67061;48.524;9.040;2023-05-18T03:07:49;2.10;99.90
77865;DHT22;67061;48.524;9.040;2023-05-18T03:10:17;2.10;99.90
77865;DHT22;67061;48.524;9.040;2023-05-18T03:12:44;2.10;99.90
77865;DHT22;67061;48.524;9.040;2023-05-18T03:15:11;2.00;99.90
77865;DHT22;67061;48.524;9.040;2023-05-18T03:17:40;2.00;99.90
77865;DHT22;67061;48.524;9.040;2023-05-18T03:20:08;2.00;99.90
77865;DHT22;67061;48.524;9.040;2023-05-18T03:22:36;1.90;99.90
77865;DHT22;67061;48.524;9.040;2023-05-18T03:25:05;1.90;99.90
77865;DHT22;67061;48.524;9.040;2023-05-18T03:27:32;1.80;99.90
77865;DHT22;67061;48.524;9.040;2023-05-18T03:29:59;1.80;99.90
77865;DHT22;67061;48.524;9.040;2023-05-18T03:32:25;1.80;99.90
77865;DHT22;67061;48.524;9.040;2023-05-18T03:34:53;1.70;99.90
77865;DHT22;67061;48.524;9.040;2023-05-18T03:37:20;1.70;99.90
77865;DHT22;67061;48.524;9.040;2023-05-18T03:39:47;1.60;99.90
77865;DHT22;67061;48.524;9.040;2023-05-18T03:42:15;1.60;99.90
77865;DHT22;67061;48.524;9.040;2023-05-18T03:44:42;1.60;99.90
77865;DHT22;67061;48.524;9.040;2023-05-18T03:47:09;1.50;99.90
77865;DHT22;67061;48.524;9.040;2023-05-18T03:49:36;1.40;99.90
77865;DHT22;67061;48.524;9.040;2023-05-18T03:52:03;1.40;99.90
77865;DHT22;67061;48.524;9.040;2023-05-18T03:54:30;1.40;99.90
77865;DHT22;67061;48.524;9.040;2023-05-18T03:56:57;1.40;99.90
77865;DHT22;67061;48.524;9.040;2023-05-18T03:59:25;1.30;99.90
77865;DHT22;67061;48.524;9.040;2023-05-18T04:01:52;1.30;99.90
77865;DHT22;67061;48.524;9.040;2023-05-18T04:04:20;1.20;99.90
77865;DHT22;67061;48.524;9.040;2023-05-18T04:06:48;1.20;99.90
77865;DHT22;67061;48.524;9.040;2023-05-18T04:09:16;1.20;99.90
77865;DHT22;67061;48.524;9.040;2023-05-18T04:11:44;1.30;99.90
77865;DHT22;67061;48.524;9.040;2023-05-18T04:14:11;1.30;99.90
77865;DHT22;67061;48.524;9.040;2023-05-18T04:16:40;1.30;99.90
77865;DHT22;67061;48.524;9.040;2023-05-18T04:19:07;1.40;99.90
77865;DHT22;67061;48.524;9.040;2023-05-18T04:21:35;1.40;99.90
77865;DHT22;67061;48.524;9.040;2023-05-18T04:24:02;1.40;99.90
77865;DHT22;67061;48.524;9.040;2023-05-18T04:26:31;1.40;99.90
77865;DHT22;67061;48.524;9.040;2023-05-18T04:29:01;1.40;99.90
77865;DHT22;67061;48.524;9.040;2023-05-18T04:31:27;1.40;99.90
77865;DHT22;67061;48.524;9.040;2023-05-18T04:33:56;1.40;99.90
77865;DHT22;67061;48.524;9.040;2023-05-18T04:36:24;1.40;99.90
77865;DHT22;67061;48.524;9.040;2023-05-18T04:38:55;1.40;99.90
77865;DHT22;67061;48.524;9.040;2023-05-18T04:41:24;1.40;99.90
77865;DHT22;67061;48.524;9.040;2023-05-18T04:43:51;1.50;99.90
77865;DHT22;67061;48.524;9.040;2023-05-18T04:46:18;1.50;99.90
77865;DHT22;67061;48.524;9.040;2023-05-18T04:48:46;1.50;99.90
77865;DHT22;67061;48.524;9.040;2023-05-18T04:51:16;1.50;99.90
77865;DHT22;67061;48.524;9.040;2023-05-18T04:53:46;1.60;99.90
77865;DHT22;67061;48.524;9.040;2023-05-18T04:56:14;1.70;99.90
77865;DHT22;67061;48.524;9.040;2023-05-18T04:58:41;1.80;99.90
77865;DHT22;67061;48.524;9.040;2023-05-18T05:01:10;1.80;99.90
77865;DHT22;67061;48.524;9.040;2023-05-18T05:03:37;2.00;99.90
77865;DHT22;67061;48.524;9.040;2023-05-18T05:06:04;2.00;99.90
77865;DHT22;67061;48.524;9.040;2023-05-18T05:08:33;2.10;99.90
77865;DHT22;67061;48.524;9.040;2023-05-18T05:11:00;2.20;99.90
77865;DHT22;67061;48.524;9.040;2023-05-18T05:13:27;2.30;99.90
77865;DHT22;67061;48.524;9.040;2023-05-18T05:15:54;2.40;99.90
77865;DHT22;67061;48.524;9.040;2023-05-18T05:18:21;2.50;99.90
77865;DHT22;67061;48.524;9.040;2023-05-18T05:20:49;2.50;99.90
77865;DHT22;67061;48.524;9.040;2023-05-18T05:23:16;2.70;99.90
77865;DHT22;67061;48.524;9.040;2023-05-18T05:25:44;2.80;99.90
77865;DHT22;67061;48.524;9.040;2023-05-18T05:28:11;2.90;99.90
77865;DHT22;67061;48.524;9.040;2023-05-18T05:30:38;3.00;99.90
77865;DHT22;67061;48.524;9.040;2023-05-18T05:33:05;3.10;99.90
77865;DHT22;67061;48.524;9.040;2023-05-18T05:35:32;3.10;99.90
77865;DHT22;67061;48.524;9.040;2023-05-18T05:37:59;3.30;99.90
77865;DHT22;67061;48.524;9.040;2023-05-18T05:40:25;3.30;99.90
77865;DHT22;67061;48.524;9.040;2023-05-18T05:42:54;3.40;99.90
77865;DHT22;67061;48.524;9.040;2023-05-18T05:45:21;3.50;99.90
77865;DHT22;67061;48.524;9.040;2023-05-18T05:47:48;3.50;99.90
77865;DHT22;67061;48.524;9.040;2023-05-18T05:50:15;3.50;99.90
77865;DHT22;67061;48.524;9.040;2023-05-18T05:52:42;3.50;99.90
77865;DHT22;67061;48.524;9.040;2023-05-18T05:55:09;3.60;99.90
77865;DHT22;67061;48.524;9.040;2023-05-18T05:57:36;3.80;99.90
77865;DHT22;67061;48.524;9.040;2023-05-18T06:00:09;3.90;99.90
77865;DHT22;67061;48.524;9.040;2023-05-18T06:02:37;4.10;99.90
77865;DHT22;67061;48.524;9.040;2023-05-18T06:05:05;4.20;99.90
77865;DHT22;67061;48.524;9.040;2023-05-18T06:07:31;4.30;99.90
77865;DHT22;67061;48.524;9.040;2023-05-18T06:09:59;4.50;99.90
77865;DHT22;67061;48.524;9.040;2023-05-18T06:12:26;4.60;99.90
77865;DHT22;67061;48.524;9.040;2023-05-18T06:14:54;4.70;99.90
77865;DHT22;67061;48.524;9.040;2023-05-18T06:17:24;4.80;99.90
77865;DHT22;67061;48.524;9.040;2023-05-18T06:19:51;5.00;99.90
77865;DHT22;67061;48.524;9.040;2023-05-18T06:22:18;5.00;99.90
77865;DHT22;67061;48.524;9.040;2023-05-18T06:24:45;5.20;99.90
77865;DHT22;67061;48.524;9.040;2023-05-18T06:27:12;5.30;99.90
77865;DHT22;67061;48.524;9.040;2023-05-18T06:29:39;5.60;99.70
77865;DHT22;67061;48.524;9.040;2023-05-18T06:32:06;5.90;98.20
77865;DHT22;67061;48.524;9.040;2023-05-18T06:34:35;6.10;95.50
77865;DHT22;67061;48.524;9.040;2023-05-18T06:37:02;6.10;94.80
77865;DHT22;67061;48.524;9.040;2023-05-18T06:39:29;6.10;95.10
77865;DHT22;67061;48.524;9.040;2023-05-18T06:41:56;6.10;95.80
77865;DHT22;67061;48.524;9.040;2023-05-18T06:44:23;6.20;94.60
77865;DHT22;67061;48.524;9.040;2023-05-18T06:46:50;6.30;94.60
77865;DHT22;67061;48.524;9.040;2023-05-18T06:49:16;6.40;94.80
77865;DHT22;67061;48.524;9.040;2023-05-18T06:51:45;6.50;94.10
77865;DHT22;67061;48.524;9.040;2023-05-18T06:54:12;6.70;91.90
77865;DHT22;67061;48.524;9.040;2023-05-18T06:56:39;7.00;91.20
77865;DHT22;67061;48.524;9.040;2023-05-18T06:59:06;7.10;89.50
77865;DHT22;67061;48.524;9.040;2023-05-18T07:01:33;7.40;89.90
77865;DHT22;67061;48.524;9.040;2023-05-18T07:03:59;7.60;87.30
77865;DHT22;67061;48.524;9.040;2023-05-18T07:06:27;8.00;86.40
77865;DHT22;67061;48.524;9.040;2023-05-18T07:08:55;8.30;84.10
77865;DHT22;67061;48.524;9.040;2023-05-18T07:11:22;8.50;82.50
77865;DHT22;67061;48.524;9.040;2023-05-18T07:13:49;8.60;80.70
77865;DHT22;67061;48.524;9.040;2023-05-18T07:16:16;8.70;81.50
77865;DHT22;67061;48.524;9.040;2023-05-18T07:18:42;8.90;80.30
77865;DHT22;67061;48.524;9.040;2023-05-18T07:21:09;9.00;79.70
77865;DHT22;67061;48.524;9.040;2023-05-18T07:23:36;9.10;78.50
77865;DHT22;67061;48.524;9.040;2023-05-18T07:26:05;9.30;78.70
77865;DHT22;67061;48.524;9.040;2023-05-18T07:28:34;9.40;78.80
77865;DHT22;67061;48.524;9.040;2023-05-18T07:31:02;9.50;78.10
77865;DHT22;67061;48.524;9.040;2023-05-18T07:33:29;9.70;77.80
77865;DHT22;67061;48.524;9.040;2023-05-18T07:35:56;9.70;77.50
77865;DHT22;67061;48.524;9.040;2023-05-18T07:38:23;9.90;75.80
77865;DHT22;67061;48.524;9.040;2023-05-18T07:40:50;10.00;74.80
77865;DHT22;67061;48.524;9.040;2023-05-18T07:43:18;10.10;76.00
77865;DHT22;67061;48.524;9.040;2023-05-18T07:45:45;10.10;74.30
77865;DHT22;67061;48.524;9.040;2023-05-18T07:48:12;10.20;75.20
77865;DHT22;67061;48.524;9.040;2023-05-18T07:50:39;10.20;73.20
77865;DHT22;67061;48.524;9.040;2023-05-18T07:53:06;10.20;73.90
77865;DHT22;67061;48.524;9.040;2023-05-18T07:55:33;10.30;73.50
77865;DHT22;67061;48.524;9.040;2023-05-18T07:58:00;10.40;72.60
77865;DHT22;67061;48.524;9.040;2023-05-18T08:00:29;10.40;73.20
77865;DHT22;67061;48.524;9.040;2023-05-18T08:02:56;10.50;72.50
77865;DHT22;67061;48.524;9.040;2023-05-18T08:05:24;10.60;72.00
77865;DHT22;67061;48.524;9.040;2023-05-18T08:07:50;10.60;71.80
77865;DHT22;67061;48.524;9.040;2023-05-18T08:10:17;10.70;71.80
77865;DHT22;67061;48.524;9.040;2023-05-18T08:12:44;10.80;71.80
77865;DHT22;67061;48.524;9.040;2023-05-18T08:15:11;10.90;71.60
77865;DHT22;67061;48.524;9.040;2023-05-18T08:17:39;11.10;70.70
77865;DHT22;67061;48.524;9.040;2023-05-18T08:20:07;11.10;70.50
77865;DHT22;67061;48.524;9.040;2023-05-18T08:22:35;11.10;70.50
77865;DHT22;67061;48.524;9.040;2023-05-18T08:25:02;11.10;71.60
77865;DHT22;67061;48.524;9.040;2023-05-18T08:27:29;11.30;71.30
77865;DHT22;67061;48.524;9.040;2023-05-18T08:29:56;11.20;70.40
77865;DHT22;67061;48.524;9.040;2023-05-18T08:32:23;11.30;70.50
77865;DHT22;67061;48.524;9.040;2023-05-18T08:34:51;11.40;70.30
77865;DHT22;67061;48.524;9.040;2023-05-18T08:37:18;11.40;70.40
77865;DHT22;67061;48.524;9.040;2023-05-18T08:39:46;11.50;69.50
77865;DHT22;67061;48.524;9.040;2023-05-18T08:42:19;11.70;68.80
77865;DHT22;67061;48.524;9.040;2023-05-18T08:44:49;11.70;67.90
77865;DHT22;67061;48.524;9.040;2023-05-18T08:47:17;11.70;68.40
77865;DHT22;67061;48.524;9.040;2023-05-18T08:49:52;11.70;69.20
77865;DHT22;67061;48.524;9.040;2023-05-18T08:52:24;11.80;68.60
77865;DHT22;67061;48.524;9.040;2023-05-18T08:54:53;12.00;68.00
77865;DHT22;67061;48.524;9.040;2023-05-18T08:57:21;12.00;66.70
77865;DHT22;67061;48.524;9.040;2023-05-18T08:59:51;12.10;67.80
77865;DHT22;67061;48.524;9.040;2023-05-18T09:02:20;12.20;68.20
77865;DHT22;67061;48.524;9.040;2023-05-18T09:04:47;12.20;66.60
77865;DHT22;67061;48.524;9.040;2023-05-18T09:07:16;12.30;66.70
77865;DHT22;67061;48.524;9.040;2023-05-18T09:09:44;12.40;65.40
77865;DHT22;67061;48.524;9.040;2023-05-18T09:12:12;12.50;65.90
77865;DHT22;67061;48.524;9.040;2023-05-18T09:14:41;12.50;64.80
77865;DHT22;67061;48.524;9.040;2023-05-18T09:17:09;12.50;66.30
77865;DHT22;67061;48.524;9.040;2023-05-18T09:19:36;12.50;65.40
77865;DHT22;67061;48.524;9.040;2023-05-18T09:22:03;12.70;65.90
77865;DHT22;67061;48.524;9.040;2023-05-18T09:24:31;12.90;65.70
77865;DHT22;67061;48.524;9.040;2023-05-18T09:26:58;13.10;63.60
77865;DHT22;67061;48.524;9.040;2023-05-18T09:29:25;13.10;65.60
77865;DHT22;67061;48.524;9.040;2023-05-18T09:31:52;13.10;65.00
77865;DHT22;67061;48.524;9.040;2023-05-18T09:34:19;13.30;63.20
77865;DHT22;67061;48.524;9.040;2023-05-18T09:36:49;13.10;63.70
77865;DHT22;67061;48.524;9.040;2023-05-18T09:39:17;13.20;63.90
77865;DHT22;67061;48.524;9.040;2023-05-18T09:41:45;13.30;64.30
77865;DHT22;67061;48.524;9.040;2023-05-18T09:44:12;13.50;63.20
77865;DHT22;67061;48.524;9.040;2023-05-18T09:46:41;13.50;62.50
77865;DHT22;67061;48.524;9.040;2023-05-18T09:49:07;13.60;63.00
77865;DHT22;67061;48.524;9.040;2023-05-18T09:51:35;13.60;62.90
77865;DHT22;67061;48.524;9.040;2023-05-18T09:54:03;13.80;62.00
77865;DHT22;67061;48.524;9.040;2023-05-18T09:56:30;13.90;58.90
77865;DHT22;67061;48.524;9.040;2023-05-18T09:59:09;13.90;61.20
77865;DHT22;67061;48.524;9.040;2023-05-18T10:01:36;13.70;59.00
77865;DHT22;67061;48.524;9.040;2023-05-18T10:04:06;13.80;60.90
77865;DHT22;67061;48.524;9.040;2023-05-18T10:06:32;13.90;58.80
77865;DHT22;67061;48.524;9.040;2023-05-18T10:09:01;14.00;57.40
77865;DHT22;67061;48.524;9.040;2023-05-18T10:11:30;13.90;58.60
77865;DHT22;67061;48.524;9.040;2023-05-18T10:13:58;14.00;58.80
77865;DHT22;67061;48.524;9.040;2023-05-18T10:16:26;14.00;58.70
77865;DHT22;67061;48.524;9.040;2023-05-18T10:18:53;14.10;58.00
77865;DHT22;67061;48.524;9.040;2023-05-18T10:21:23;14.40;59.90
77865;DHT22;67061;48.524;9.040;2023-05-18T10:23:53;14.60;54.90
77865;DHT22;67061;48.524;9.040;2023-05-18T10:26:22;14.50;55.50
77865;DHT22;67061;48.524;9.040;2023-05-18T10:28:52;14.50;58.10
77865;DHT22;67061;48.524;9.040;2023-05-18T10:31:20;14.60;56.50
77865;DHT22;67061;48.524;9.040;2023-05-18T10:33:51;14.80;57.70
77865;DHT22;67061;48.524;9.040;2023-05-18T10:36:18;15.10;58.00
77865;DHT22;67061;48.524;9.040;2023-05-18T10:38:49;15.00;52.10
77865;DHT22;67061;48.524;9.040;2023-05-18T10:41:17;14.80;53.60
77865;DHT22;67061;48.524;9.040;2023-05-18T10:43:47;14.70;54.90
77865;DHT22;67061;48.524;9.040;2023-05-18T10:46:15;14.70;53.70
77865;DHT22;67061;48.524;9.040;2023-05-18T10:48:44;14.80;55.10
77865;DHT22;67061;48.524;9.040;2023-05-18T10:51:15;14.80;52.10
77865;DHT22;67061;48.524;9.040;2023-05-18T10:53:45;14.80;53.60
77865;DHT22;67061;48.524;9.040;2023-05-18T10:56:12;15.00;53.20
77865;DHT22;67061;48.524;9.040;2023-05-18T10:58:42;14.90;50.30
77865;DHT22;67061;48.524;9.040;2023-05-18T11:01:10;14.90;52.20
77865;DHT22;67061;48.524;9.040;2023-05-18T11:03:38;15.00;54.20
77865;DHT22;67061;48.524;9.040;2023-05-18T11:06:06;15.30;53.00
77865;DHT22;67061;48.524;9.040;2023-05-18T11:08:44;15.40;51.10
77865;DHT22;67061;48.524;9.040;2023-05-18T11:11:12;15.50;49.70
77865;DHT22;67061;48.524;9.040;2023-05-18T11:13:43;15.40;52.70
77865;DHT22;67061;48.524;9.040;2023-05-18T11:16:10;15.50;50.90
77865;DHT22;67061;48.524;9.040;2023-05-18T11:18:42;15.60;49.50
77865;DHT22;67061;48.524;9.040;2023-05-18T11:21:29;15.40;49.60
77865;DHT22;67061;48.524;9.040;2023-05-18T11:24:20;15.50;50.70
77865;DHT22;67061;48.524;9.040;2023-05-18T11:26:49;15.70;53.40
77865;DHT22;67061;48.524;9.040;2023-05-18T11:29:20;16.10;51.80
77865;DHT22;67061;48.524;9.040;2023-05-18T11:31:49;16.10;49.50
77865;DHT22;67061;48.524;9.040;2023-05-18T11:37:09;16.40;50.70
77865;DHT22;67061;48.524;9.040;2023-05-18T11:39:38;16.80;49.50
77865;DHT22;67061;48.524;9.040;2023-05-18T11:42:06;16.90;48.40
77865;DHT22;67061;48.524;9.040;2023-05-18T11:44:33;16.70;47.20
77865;DHT22;67061;48.524;9.040;2023-05-18T11:47:01;16.40;47.50
77865;DHT22;67061;48.524;9.040;2023-05-18T11:49:30;16.20;48.30
77865;DHT22;67061;48.524;9.040;2023-05-18T11:52:05;16.10;49.40
77865;DHT22;67061;48.524;9.040;2023-05-18T11:54:36;16.20;50.50
77865;DHT22;67061;48.524;9.040;2023-05-18T11:57:05;16.60;49.10
77865;DHT22;67061;48.524;9.040;2023-05-18T11:59:32;16.60;47.10
77865;DHT22;67061;48.524;9.040;2023-05-18T12:02:01;16.40;50.70
77865;DHT22;67061;48.524;9.040;2023-05-18T12:04:29;16.50;51.60
77865;DHT22;67061;48.524;9.040;2023-05-18T12:06:58;16.40;50.00
77865;DHT22;67061;48.524;9.040;2023-05-18T12:09:26;16.60;49.60
77865;DHT22;67061;48.524;9.040;2023-05-18T12:11:55;16.80;49.80
77865;DHT22;67061;48.524;9.040;2023-05-18T12:14:24;16.80;48.80
77865;DHT22;67061;48.524;9.040;2023-05-18T12:16:52;16.70;49.90
77865;DHT22;67061;48.524;9.040;2023-05-18T12:19:20;16.70;48.90
77865;DHT22;67061;48.524;9.040;2023-05-18T12:21:48;16.80;49.40
77865;DHT22;67061;48.524;9.040;2023-05-18T12:24:15;16.70;49.40
77865;DHT22;67061;48.524;9.040;2023-05-18T12:26:42;16.70;50.50
77865;DHT22;67061;48.524;9.040;2023-05-18T12:29:11;16.90;50.40
77865;DHT22;67061;48.524;9.040;2023-05-18T12:31:46;17.00;49.20
77865;DHT22;67061;48.524;9.040;2023-05-18T12:34:13;17.00;48.60
77865;DHT22;67061;48.524;9.040;2023-05-18T12:36:50;17.00;48.70
77865;DHT22;67061;48.524;9.040;2023-05-18T12:39:18;17.20;47.30
77865;DHT22;67061;48.524;9.040;2023-05-18T12:41:45;17.10;48.20
77865;DHT22;67061;48.524;9.040;2023-05-18T12:44:12;17.00;47.90
77865;DHT22;67061;48.524;9.040;2023-05-18T12:46:40;17.10;48.20
77865;DHT22;67061;48.524;9.040;2023-05-18T12:49:09;17.00;46.70
77865;DHT22;67061;48.524;9.040;2023-05-18T12:51:36;16.80;47.40
77865;DHT22;67061;48.524;9.040;2023-05-18T12:54:05;16.70;48.00
77865;DHT22;67061;48.524;9.040;2023-05-18T12:56:48;16.50;47.90
77865;DHT22;67061;48.524;9.040;2023-05-18T12:59:17;16.40;47.70
77865;DHT22;67061;48.524;9.040;2023-05-18T13:01:44;16.50;48.60
77865;DHT22;67061;48.524;9.040;2023-05-18T13:04:12;16.40;49.40
77865;DHT22;67061;48.524;9.040;2023-05-18T13:06:39;16.60;49.80
77865;DHT22;67061;48.524;9.040;2023-05-18T13:09:07;16.80;49.10
77865;DHT22;67061;48.524;9.040;2023-05-18T13:11:37;16.90;48.80
77865;DHT22;67061;48.524;9.040;2023-05-18T13:14:05;17.10;49.00
77865;DHT22;67061;48.524;9.040;2023-05-18T13:16:36;17.40;48.20
77865;DHT22;67061;48.524;9.040;2023-05-18T13:19:05;17.40;46.30
77865;DHT22;67061;48.524;9.040;2023-05-18T13:21:34;17.00;46.50
77865;DHT22;67061;48.524;9.040;2023-05-18T13:24:01;16.70;47.60
77865;DHT22;67061;48.524;9.040;2023-05-18T13:26:28;16.70;48.30
77865;DHT22;67061;48.524;9.040;2023-05-18T13:28:56;16.70;48.30
77865;DHT22;67061;48.524;9.040;2023-05-18T13:31:23;16.60;49.10
77865;DHT22;67061;48.524;9.040;2023-05-18T13:33:50;16.70;48.70
77865;DHT22;67061;48.524;9.040;2023-05-18T13:36:17;16.60;48.20
77865;DHT22;67061;48.524;9.040;2023-05-18T13:38:46;16.60;48.30
77865;DHT22;67061;48.524;9.040;2023-05-18T13:41:13;16.50;48.10
77865;DHT22;67061;48.524;9.040;2023-05-18T13:43:40;16.40;48.30
77865;DHT22;67061;48.524;9.040;2023-05-18T13:46:07;16.40;48.60
77865;DHT22;67061;48.524;9.040;2023-05-18T13:48:34;16.30;49.50
77865;DHT22;67061;48.524;9.040;2023-05-18T13:51:01;16.40;49.30
77865;DHT22;67061;48.524;9.040;2023-05-18T13:53:28;16.40;48.80
77865;DHT22;67061;48.524;9.040;2023-05-18T13:55:56;16.40;48.20
77865;DHT22;67061;48.524;9.040;2023-05-18T13:58:23;16.40;49.40
77865;DHT22;67061;48.524;9.040;2023-05-18T14:00:50;16.40;50.00
77865;DHT22;67061;48.524;9.040;2023-05-18T14:03:19;16.50;50.70
77865;DHT22;67061;48.524;9.040;2023-05-18T14:05:45;16.60;49.10
77865;DHT22;67061;48.524;9.040;2023-05-18T14:08:12;16.60;49.00
77865;DHT22;67061;48.524;9.040;2023-05-18T14:10:39;16.50;48.90
77865;DHT22;67061;48.524;9.040;2023-05-18T14:13:08;16.50;50.10
77865;DHT22;67061;48.524;9.040;2023-05-18T14:15:35;16.50;48.80
77865;DHT22;67061;48.524;9.040;2023-05-18T14:18:02;16.40;49.20
77865;DHT22;67061;48.524;9.040;2023-05-18T14:20:29;16.40;49.80
77865;DHT22;67061;48.524;9.040;2023-05-18T14:22:56;16.30;49.40
77865;DHT22;67061;48.524;9.040;2023-05-18T14:25:23;16.40;49.00
77865;DHT22;67061;48.524;9.040;2023-05-18T14:27:50;16.30;48.50
77865;DHT22;67061;48.524;9.040;2023-05-18T14:30:18;16.40;49.20
77865;DHT22;67061;48.524;9.040;2023-05-18T14:32:45;16.40;49.70
77865;DHT22;67061;48.524;9.040;2023-05-18T14:35:12;16.40;47.70
77865;DHT22;67061;48.524;9.040;2023-05-18T14:37:38;16.20;48.50
77865;DHT22;67061;48.524;9.040;2023-05-18T14:40:06;16.20;49.20
77865;DHT22;67061;48.524;9.040;2023-05-18T14:42:33;16.20;49.40
77865;DHT22;67061;48.524;9.040;2023-05-18T14:45:01;16.10;47.90
77865;DHT22;67061;48.524;9.040;2023-05-18T14:47:30;16.10;48.20
77865;DHT22;67061;48.524;9.040;2023-05-18T14:49:57;16.10;49.00
77865;DHT22;67061;48.524;9.040;2023-05-18T14:52:23;16.10;48.40
77865;DHT22;67061;48.524;9.040;2023-05-18T14:54:50;16.20;49.40
77865;DHT22;67061;48.524;9.040;2023-05-18T14:57:17;16.20;48.60
77865;DHT22;67061;48.524;9.040;2023-05-18T14:59:44;16.20;48.90
77865;DHT22;67061;48.524;9.040;2023-05-18T15:02:11;16.20;48.40
77865;DHT22;67061;48.524;9.040;2023-05-18T15:04:39;16.10;47.50
77865;DHT22;67061;48.524;9.040;2023-05-18T15:07:06;16.10;48.30
77865;DHT22;67061;48.524;9.040;2023-05-18T15:09:33;16.00;48.00
77865;DHT22;67061;48.524;9.040;2023-05-18T15:12:00;16.00;48.30
77865;DHT22;67061;48.524;9.040;2023-05-18T15:14:27;15.90;48.20
77865;DHT22;67061;48.524;9.040;2023-05-18T15:16:53;15.80;48.30
77865;DHT22;67061;48.524;9.040;2023-05-18T15:19:20;15.80;49.40
77865;DHT22;67061;48.524;9.040;2023-05-18T15:21:49;15.80;49.30
77865;DHT22;67061;48.524;9.040;2023-05-18T15:24:16;15.70;50.00
77865;DHT22;67061;48.524;9.040;2023-05-18T15:26:43;15.60;50.30
77865;DHT22;67061;48.524;9.040;2023-05-18T15:29:10;15.60;50.30
77865;DHT22;67061;48.524;9.040;2023-05-18T15:31:37;15.60;49.50
77865;DHT22;67061;48.524;9.040;2023-05-18T15:34:04;15.60;50.50
77865;DHT22;67061;48.524;9.040;2023-05-18T15:36:32;15.60;50.50
77865;DHT22;67061;48.524;9.040;2023-05-18T15:39:02;15.50;51.20
77865;DHT22;67061;48.524;9.040;2023-05-18T15:41:30;15.50;52.10
77865;DHT22;67061;48.524;9.040;2023-05-18T15:43:58;15.50;50.50
77865;DHT22;67061;48.524;9.040;2023-05-18T15:46:28;15.50;50.00